sensor_id;sensor_type;location;lat;lon;timestamp;P1;durP1;ratioP1;P2;durP2;ratioP2
1975;SDS011;988;48.016;7.800;2023-04-24T00:00:00;9.95;;;9.48;;
1975;SDS011;988;48.016;7.800;2023-04-24T00:02:26;9.68;;;9.18;;
1975;SDS011;988;48.016;7.800;2023-04-24T00:04:52;9.63;;;9.13;;
1975;SDS011;988;48.016;7.800;2023-04-24T00:07:17;9.63;;;9.13;;
1975;SDS011;988;48.016;7.800;2023-04-24T00:09:45;9.93;;;9.43;;
1975;SDS011;988;48.016;7.800;2023-04-24T00:12:10;10.30;;;9.87;;
1975;SDS011;988;48.016;7.800;2023-04-24T00:14:36;10.30;;;9.90;;
1975;SDS011;988;48.016;7.800;2023-04-24T00:17:02;11.10;;;10.40;;
1975;SDS011;988;48.016;7.800;2023-04-24T00:19:27;10.20;;;9.80;;
1975;SDS011;988;48.016;7.800;2023-04-24T00:21:54;10.32;;;9.93;;
1975;SDS011;988;48.016;7.800;2023-04-24T00:24:20;10.90;;;10.40;;
1975;SDS011;988;48.016;7.800;2023-04-24T00:26:45;10.32;;;9.82;;
1975;SDS011;988;48.016;7.800;2023-04-24T00:29:11;11.70;;;11.00;;
1975;SDS011;988;48.016;7.800;2023-04-24T00:31:37;11.10;;;10.50;;
1975;SDS011;988;48.016;7.800;2023-04-24T00:34:03;9.37;;;8.97;;
1975;SDS011;988;48.016;7.800;2023-04-24T00:36:29;9.80;;;9.40;;
1975;SDS011;988;48.016;7.800;2023-04-24T00:38:55;10.32;;;9.73;;
1975;SDS011;988;48.016;7.800;2023-04-24T00:41:22;9.10;;;8.75;;
1975;SDS011;988;48.016;7.800;2023-04-24T00:43:49;9.35;;;8.95;;
1975;SDS011;988;48.016;7.800;2023-04-24T00:46:15;8.97;;;8.57;;
1975;SDS011;988;48.016;7.800;2023-04-24T00:48:41;9.93;;;9.52;;
1975;SDS011;988;48.016;7.800;2023-04-24T00:51:08;8.77;;;8.48;;
1975;SDS011;988;48.016;7.800;2023-04-24T00:53:33;9.13;;;8.80;;
1975;SDS011;988;48.016;7.800;2023-04-24T00:56:01;10.25;;;9.65;;
1975;SDS011;988;48.016;7.800;2023-04-24T00:58:27;10.05;;;9.57;;
1975;SDS011;988;48.016;7.800;2023-04-24T01:00:56;8.63;;;8.32;;
1975;SDS011;988;48.016;7.800;2023-04-24T01:03:23;10.30;;;9.70;;
1975;SDS011;988;48.016;7.800;2023-04-24T01:05:51;10.60;;;10.20;;
1975;SDS011;988;48.016;7.800;2023-04-24T01:08:19;8.88;;;8.57;;
1975;SDS011;988;48.016;7.800;2023-04-24T01:10:48;9.73;;;9.20;;
1975;SDS011;988;48.016;7.800;2023-04-24T01:13:18;9.18;;;8.57;;
1975;SDS011;988;48.016;7.800;2023-04-24T01:15:45;9.25;;;8.95;;
1975;SDS011;988;48.016;7.800;2023-04-24T01:18:11;10.05;;;9.65;;
1975;SDS011;988;48.016;7.800;2023-04-24T01:20:39;9.57;;;9.23;;
1975;SDS011;988;48.016;7.800;2023-04-24T01:23:06;9.32;;;8.85;;
1975;SDS011;988;48.016;7.800;2023-04-24T01:25:32;8.98;;;8.57;;
1975;SDS011;988;48.016;7.800;2023-04-24T01:27:58;8.98;;;8.57;;
1975;SDS011;988;48.016;7.800;2023-04-24T01:30:25;8.75;;;8.45;;
1975;SDS011;988;48.016;7.800;2023-04-24T01:32:51;9.68;;;9.27;;
1975;SDS011;988;48.016;7.800;2023-04-24T01:35:17;10.17;;;9.77;;
1975;SDS011;988;48.016;7.800;2023-04-24T01:37:43;10.20;;;9.80;;
1975;SDS011;988;48.016;7.800;2023-04-24T01:40:09;9.20;;;8.70;;
1975;SDS011;988;48.016;7.800;2023-04-24T01:42:35;9.63;;;9.23;;
1975;SDS011;988;48.016;7.800;2023-04-24T01:45:01;8.77;;;8.47;;
1975;SDS011;988;48.016;7.800;2023-04-24T01:47:28;8.88;;;8.48;;
1975;SDS011;988;48.016;7.800;2023-04-24T01:49:55;7.95;;;7.65;;
1975;SDS011;988;48.016;7.800;2023-04-24T01:52:21;8.80;;;8.33;;
1975;SDS011;988;48.016;7.800;2023-04-24T01:54:46;7.83;;;7.40;;
1975;SDS011;988;48.016;7.800;2023-04-24T01:57:13;7.90;;;7.50;;
1975;SDS011;988;48.016;7.800;2023-04-24T01:59:39;7.78;;;7.18;;
1975;SDS011;988;48.016;7.800;2023-04-24T02:02:05;9.13;;;8.73;;
1975;SDS011;988;48.016;7.800;2023-04-24T02:04:31;8.23;;;7.73;;
1975;SDS011;988;48.016;7.800;2023-04-24T02:06:56;7.47;;;7.17;;
1975;SDS011;988;48.016;7.800;2023-04-24T02:09:22;7.97;;;7.67;;
1975;SDS011;988;48.016;7.800;2023-04-24T02:11:48;7.70;;;7.40;;
1975;SDS011;988;48.016;7.800;2023-04-24T02:14:13;9.50;;;8.90;;
1975;SDS011;988;48.016;7.800;2023-04-24T02:16:39;8.30;;;7.90;;
1975;SDS011;988;48.016;7.800;2023-04-24T02:19:05;8.70;;;8.07;;
1975;SDS011;988;48.016;7.800;2023-04-24T02:21:31;8.35;;;7.70;;
1975;SDS011;988;48.016;7.800;2023-04-24T02:23:58;7.97;;;7.43;;
1975;SDS011;988;48.016;7.800;2023-04-24T02:26:23;7.57;;;7.00;;
1975;SDS011;988;48.016;7.800;2023-04-24T02:28:49;6.55;;;6.35;;
1975;SDS011;988;48.016;7.800;2023-04-24T02:31:15;6.70;;;6.40;;
1975;SDS011;988;48.016;7.800;2023-04-24T02:33:40;7.50;;;7.20;;
1975;SDS011;988;48.016;7.800;2023-04-24T02:36:06;7.73;;;7.13;;
1975;SDS011;988;48.016;7.800;2023-04-24T02:38:32;6.77;;;6.47;;
1975;SDS011;988;48.016;7.800;2023-04-24T02:40:57;7.60;;;7.23;;
1975;SDS011;988;48.016;7.800;2023-04-24T02:43:23;8.43;;;7.93;;
1975;SDS011;988;48.016;7.800;2023-04-24T02:45:49;7.63;;;7.13;;
1975;SDS011;988;48.016;7.800;2023-04-24T02:48:14;8.03;;;7.73;;
1975;SDS011;988;48.016;7.800;2023-04-24T02:50:40;8.57;;;8.27;;
1975;SDS011;988;48.016;7.800;2023-04-24T02:53:06;9.10;;;8.50;;
1975;SDS011;988;48.016;7.800;2023-04-24T02:55:31;7.47;;;7.17;;
1975;SDS011;988;48.016;7.800;2023-04-24T02:57:57;7.90;;;7.40;;
1975;SDS011;988;48.016;7.800;2023-04-24T03:00:22;8.70;;;8.20;;
1975;SDS011;988;48.016;7.800;2023-04-24T03:02:48;8.60;;;8.10;;
1975;SDS011;988;48.016;7.800;2023-04-24T03:05:14;9.25;;;8.85;;
1975;SDS011;988;48.016;7.800;2023-04-24T03:07:40;8.57;;;8.17;;
1975;SDS011;988;48.016;7.800;2023-04-24T03:10:06;8.20;;;7.80;;
1975;SDS011;988;48.016;7.800;2023-04-24T03:12:32;8.20;;;7.75;;
1975;SDS011;988;48.016;7.800;2023-04-24T03:14:58;8.53;;;8.13;;
1975;SDS011;988;48.016;7.800;2023-04-24T03:17:24;8.97;;;8.43;;
1975;SDS011;988;48.016;7.800;2023-04-24T03:19:50;8.53;;;7.80;;
1975;SDS011;988;48.016;7.800;2023-04-24T03:22:15;8.27;;;7.87;;
1975;SDS011;988;48.016;7.800;2023-04-24T03:24:41;9.23;;;8.67;;
1975;SDS011;988;48.016;7.800;2023-04-24T03:27:06;8.20;;;7.80;;
1975;SDS011;988;48.016;7.800;2023-04-24T03:29:32;8.10;;;7.80;;
1975;SDS011;988;48.016;7.800;2023-04-24T03:31:57;8.07;;;7.67;;
1975;SDS011;988;48.016;7.800;2023-04-24T03:34:23;6.63;;;6.30;;
1975;SDS011;988;48.016;7.800;2023-04-24T03:36:49;7.17;;;6.63;;
1975;SDS011;988;48.016;7.800;2023-04-24T03:39:14;5.90;;;5.33;;
1975;SDS011;988;48.016;7.800;2023-04-24T03:41:40;6.20;;;5.73;;
1975;SDS011;988;48.016;7.800;2023-04-24T03:44:06;5.37;;;5.07;;
1975;SDS011;988;48.016;7.800;2023-04-24T03:46:31;5.60;;;5.40;;
1975;SDS011;988;48.016;7.800;2023-04-24T03:48:57;4.90;;;4.70;;
1975;SDS011;988;48.016;7.800;2023-04-24T03:51:22;6.23;;;5.83;;
1975;SDS011;988;48.016;7.800;2023-04-24T03:53:48;5.73;;;5.33;;
1975;SDS011;988;48.016;7.800;2023-04-24T03:56:14;5.75;;;5.32;;
1975;SDS011;988;48.016;7.800;2023-04-24T03:58:40;6.50;;;6.20;;
1975;SDS011;988;48.016;7.800;2023-04-24T04:01:06;7.90;;;7.30;;
1975;SDS011;988;48.016;7.800;2023-04-24T04:03:32;6.20;;;6.00;;
1975;SDS011;988;48.016;7.800;2023-04-24T04:05:58;5.87;;;5.67;;
1975;SDS011;988;48.016;7.800;2023-04-24T04:08:24;6.82;;;6.25;;
1975;SDS011;988;48.016;7.800;2023-04-24T04:10:49;6.20;;;5.80;;
1975;SDS011;988;48.016;7.800;2023-04-24T04:13:15;6.50;;;6.17;;
1975;SDS011;988;48.016;7.800;2023-04-24T04:15:40;6.93;;;6.53;;
1975;SDS011;988;48.016;7.800;2023-04-24T04:18:06;5.80;;;5.53;;
1975;SDS011;988;48.016;7.800;2023-04-24T04:20:32;6.27;;;5.77;;
1975;SDS011;988;48.016;7.800;2023-04-24T04:22:57;6.47;;;6.07;;
1975;SDS011;988;48.016;7.800;2023-04-24T04:25:23;5.80;;;5.50;;
1975;SDS011;988;48.016;7.800;2023-04-24T04:27:48;7.60;;;7.20;;
1975;SDS011;988;48.016;7.800;2023-04-24T04:30:15;6.25;;;5.95;;
1975;SDS011;988;48.016;7.800;2023-04-24T04:32:41;7.00;;;6.40;;
1975;SDS011;988;48.016;7.800;2023-04-24T04:35:07;6.37;;;6.03;;
1975;SDS011;988;48.016;7.800;2023-04-24T04:37:32;7.97;;;7.17;;
1975;SDS011;988;48.016;7.800;2023-04-24T04:39:58;7.67;;;7.17;;
1975;SDS011;988;48.016;7.800;2023-04-24T04:42:25;6.97;;;6.57;;
1975;SDS011;988;48.016;7.800;2023-04-24T04:44:52;7.75;;;7.15;;
1975;SDS011;988;48.016;7.800;2023-04-24T04:47:18;7.90;;;7.40;;
1975;SDS011;988;48.016;7.800;2023-04-24T04:49:49;7.88;;;7.28;;
1975;SDS011;988;48.016;7.800;2023-04-24T04:52:16;8.88;;;8.20;;
1975;SDS011;988;48.016;7.800;2023-04-24T04:54:42;7.60;;;7.03;;
1975;SDS011;988;48.016;7.800;2023-04-24T04:57:08;8.33;;;7.80;;
1975;SDS011;988;48.016;7.800;2023-04-24T04:59:34;8.70;;;8.30;;
1975;SDS011;988;48.016;7.800;2023-04-24T05:01:59;8.97;;;8.20;;
1975;SDS011;988;48.016;7.800;2023-04-24T05:04:25;7.87;;;7.50;;
1975;SDS011;988;48.016;7.800;2023-04-24T05:06:51;9.00;;;8.43;;
1975;SDS011;988;48.016;7.800;2023-04-24T05:09:17;8.05;;;7.75;;
1975;SDS011;988;48.016;7.800;2023-04-24T05:11:43;8.20;;;7.60;;
1975;SDS011;988;48.016;7.800;2023-04-24T05:14:09;6.90;;;6.60;;
1975;SDS011;988;48.016;7.800;2023-04-24T05:16:34;7.43;;;7.10;;
1975;SDS011;988;48.016;7.800;2023-04-24T05:19:01;6.88;;;6.43;;
1975;SDS011;988;48.016;7.800;2023-04-24T05:21:27;6.83;;;6.43;;
1975;SDS011;988;48.016;7.800;2023-04-24T05:23:53;6.43;;;6.03;;
1975;SDS011;988;48.016;7.800;2023-04-24T05:26:19;6.40;;;5.90;;
1975;SDS011;988;48.016;7.800;2023-04-24T05:28:44;6.17;;;5.60;;
1975;SDS011;988;48.016;7.800;2023-04-24T05:31:10;7.00;;;6.33;;
1975;SDS011;988;48.016;7.800;2023-04-24T05:33:37;5.80;;;5.30;;
1975;SDS011;988;48.016;7.800;2023-04-24T05:36:03;8.40;;;5.70;;
1975;SDS011;988;48.016;7.800;2023-04-24T05:38:30;6.32;;;5.93;;
1975;SDS011;988;48.016;7.800;2023-04-24T05:40:55;5.20;;;4.90;;
1975;SDS011;988;48.016;7.800;2023-04-24T05:43:21;5.67;;;5.27;;
1975;SDS011;988;48.016;7.800;2023-04-24T05:45:47;6.23;;;5.80;;
1975;SDS011;988;48.016;7.800;2023-04-24T05:48:12;6.60;;;6.20;;
1975;SDS011;988;48.016;7.800;2023-04-24T05:50:38;7.13;;;6.73;;
1975;SDS011;988;48.016;7.800;2023-04-24T05:53:04;6.90;;;6.33;;
1975;SDS011;988;48.016;7.800;2023-04-24T05:55:31;7.93;;;7.15;;
1975;SDS011;988;48.016;7.800;2023-04-24T05:57:58;6.70;;;6.30;;
1975;SDS011;988;48.016;7.800;2023-04-24T06:00:24;7.63;;;6.95;;
1975;SDS011;988;48.016;7.800;2023-04-24T06:02:50;6.50;;;6.10;;
1975;SDS011;988;48.016;7.800;2023-04-24T06:05:17;7.45;;;6.45;;
1975;SDS011;988;48.016;7.800;2023-04-24T06:07:43;7.70;;;7.30;;
1975;SDS011;988;48.016;7.800;2023-04-24T06:10:09;7.30;;;6.80;;
1975;SDS011;988;48.016;7.800;2023-04-24T06:12:35;9.20;;;8.30;;
1975;SDS011;988;48.016;7.800;2023-04-24T06:15:01;9.00;;;8.40;;
1975;SDS011;988;48.016;7.800;2023-04-24T06:17:27;8.60;;;8.10;;
1975;SDS011;988;48.016;7.800;2023-04-24T06:19:53;9.23;;;8.63;;
1975;SDS011;988;48.016;7.800;2023-04-24T06:22:18;9.77;;;8.87;;
1975;SDS011;988;48.016;7.800;2023-04-24T06:24:44;10.30;;;9.37;;
1975;SDS011;988;48.016;7.800;2023-04-24T06:27:10;9.40;;;8.90;;
1975;SDS011;988;48.016;7.800;2023-04-24T06:29:36;12.60;;;11.80;;
1975;SDS011;988;48.016;7.800;2023-04-24T06:32:02;11.02;;;10.43;;
1975;SDS011;988;48.016;7.800;2023-04-24T06:34:27;11.43;;;9.20;;
1975;SDS011;988;48.016;7.800;2023-04-24T06:36:53;10.90;;;10.30;;
1975;SDS011;988;48.016;7.800;2023-04-24T06:39:20;9.88;;;9.27;;
1975;SDS011;988;48.016;7.800;2023-04-24T06:41:45;10.50;;;10.00;;
1975;SDS011;988;48.016;7.800;2023-04-24T06:44:11;12.40;;;11.70;;
1975;SDS011;988;48.016;7.800;2023-04-24T06:46:36;11.33;;;10.53;;
1975;SDS011;988;48.016;7.800;2023-04-24T06:49:02;11.20;;;10.60;;
1975;SDS011;988;48.016;7.800;2023-04-24T06:51:28;12.60;;;11.90;;
1975;SDS011;988;48.016;7.800;2023-04-24T06:53:54;12.83;;;12.03;;
1975;SDS011;988;48.016;7.800;2023-04-24T06:56:21;13.43;;;12.63;;
1975;SDS011;988;48.016;7.800;2023-04-24T06:58:47;12.52;;;11.93;;
1975;SDS011;988;48.016;7.800;2023-04-24T07:01:12;12.97;;;12.27;;
1975;SDS011;988;48.016;7.800;2023-04-24T07:03:38;13.60;;;12.80;;
1975;SDS011;988;48.016;7.800;2023-04-24T07:06:04;11.37;;;10.77;;
1975;SDS011;988;48.016;7.800;2023-04-24T07:08:30;12.52;;;11.82;;
1975;SDS011;988;48.016;7.800;2023-04-24T07:10:57;14.15;;;13.25;;
1975;SDS011;988;48.016;7.800;2023-04-24T07:13:23;12.60;;;11.90;;
1975;SDS011;988;48.016;7.800;2023-04-24T07:15:49;13.70;;;13.00;;
1975;SDS011;988;48.016;7.800;2023-04-24T07:18:20;14.60;;;13.80;;
1975;SDS011;988;48.016;7.800;2023-04-24T07:20:46;14.27;;;13.27;;
1975;SDS011;988;48.016;7.800;2023-04-24T07:23:12;13.87;;;13.17;;
1975;SDS011;988;48.016;7.800;2023-04-24T07:25:37;13.23;;;12.50;;
1975;SDS011;988;48.016;7.800;2023-04-24T07:28:04;15.10;;;14.25;;
1975;SDS011;988;48.016;7.800;2023-04-24T07:30:30;15.60;;;14.80;;
1975;SDS011;988;48.016;7.800;2023-04-24T07:32:57;16.17;;;15.23;;
1975;SDS011;988;48.016;7.800;2023-04-24T07:35:23;15.60;;;14.90;;
1975;SDS011;988;48.016;7.800;2023-04-24T07:37:50;14.83;;;14.23;;
1975;SDS011;988;48.016;7.800;2023-04-24T07:40:17;14.67;;;13.80;;
1975;SDS011;988;48.016;7.800;2023-04-24T07:42:43;15.40;;;14.40;;
1975;SDS011;988;48.016;7.800;2023-04-24T07:45:09;16.23;;;15.13;;
1975;SDS011;988;48.016;7.800;2023-04-24T07:47:35;15.80;;;15.10;;
1975;SDS011;988;48.016;7.800;2023-04-24T07:50:02;15.93;;;14.93;;
1975;SDS011;988;48.016;7.800;2023-04-24T07:52:27;15.63;;;14.83;;
1975;SDS011;988;48.016;7.800;2023-04-24T07:54:54;16.33;;;15.33;;
1975;SDS011;988;48.016;7.800;2023-04-24T07:57:23;16.40;;;15.13;;
1975;SDS011;988;48.016;7.800;2023-04-24T07:59:50;15.30;;;14.40;;
1975;SDS011;988;48.016;7.800;2023-04-24T08:02:15;16.67;;;15.77;;
1975;SDS011;988;48.016;7.800;2023-04-24T08:04:41;16.80;;;15.90;;
1975;SDS011;988;48.016;7.800;2023-04-24T08:07:07;17.23;;;16.27;;
1975;SDS011;988;48.016;7.800;2023-04-24T08:09:33;18.37;;;16.50;;
1975;SDS011;988;48.016;7.800;2023-04-24T08:11:58;19.43;;;18.33;;
1975;SDS011;988;48.016;7.800;2023-04-24T08:14:24;17.73;;;16.73;;
1975;SDS011;988;48.016;7.800;2023-04-24T08:16:50;17.80;;;16.20;;
1975;SDS011;988;48.016;7.800;2023-04-24T08:19:17;18.10;;;17.07;;
1975;SDS011;988;48.016;7.800;2023-04-24T08:21:42;16.40;;;15.50;;
1975;SDS011;988;48.016;7.800;2023-04-24T08:24:08;17.07;;;16.03;;
1975;SDS011;988;48.016;7.800;2023-04-24T08:26:33;18.13;;;16.90;;
1975;SDS011;988;48.016;7.800;2023-04-24T08:28:59;18.90;;;17.33;;
1975;SDS011;988;48.016;7.800;2023-04-24T08:31:25;16.30;;;15.50;;
1975;SDS011;988;48.016;7.800;2023-04-24T08:33:51;16.87;;;15.77;;
1975;SDS011;988;48.016;7.800;2023-04-24T08:36:16;16.97;;;15.90;;
1975;SDS011;988;48.016;7.800;2023-04-24T08:38:42;15.20;;;14.40;;
1975;SDS011;988;48.016;7.800;2023-04-24T08:41:07;15.67;;;14.83;;
1975;SDS011;988;48.016;7.800;2023-04-24T08:43:34;16.13;;;15.33;;
1975;SDS011;988;48.016;7.800;2023-04-24T08:46:03;17.30;;;16.38;;
1975;SDS011;988;48.016;7.800;2023-04-24T08:48:29;17.38;;;16.48;;
1975;SDS011;988;48.016;7.800;2023-04-24T08:50:56;16.53;;;15.63;;
1975;SDS011;988;48.016;7.800;2023-04-24T08:53:23;16.20;;;15.30;;
1975;SDS011;988;48.016;7.800;2023-04-24T08:55:50;16.87;;;15.77;;
1975;SDS011;988;48.016;7.800;2023-04-24T08:58:17;16.90;;;15.80;;
1975;SDS011;988;48.016;7.800;2023-04-24T09:00:45;16.73;;;15.93;;
1975;SDS011;988;48.016;7.800;2023-04-24T09:03:15;17.13;;;16.13;;
1975;SDS011;988;48.016;7.800;2023-04-24T09:05:45;17.07;;;16.20;;
1975;SDS011;988;48.016;7.800;2023-04-24T09:08:16;16.90;;;16.00;;
1975;SDS011;988;48.016;7.800;2023-04-24T09:10:42;16.40;;;15.50;;
1975;SDS011;988;48.016;7.800;2023-04-24T09:13:08;16.60;;;15.60;;
1975;SDS011;988;48.016;7.800;2023-04-24T09:15:35;16.23;;;15.43;;
1975;SDS011;988;48.016;7.800;2023-04-24T09:18:05;15.70;;;15.00;;
1975;SDS011;988;48.016;7.800;2023-04-24T09:20:31;15.67;;;14.57;;
1975;SDS011;988;48.016;7.800;2023-04-24T09:22:57;15.90;;;15.00;;
1975;SDS011;988;48.016;7.800;2023-04-24T09:25:25;15.67;;;14.87;;
1975;SDS011;988;48.016;7.800;2023-04-24T09:28:01;15.03;;;14.33;;
1975;SDS011;988;48.016;7.800;2023-04-24T09:30:28;15.80;;;14.90;;
1975;SDS011;988;48.016;7.800;2023-04-24T09:35:55;15.60;;;14.90;;
1975;SDS011;988;48.016;7.800;2023-04-24T09:38:34;15.70;;;14.80;;
1975;SDS011;988;48.016;7.800;2023-04-24T09:41:01;15.77;;;14.90;;
1975;SDS011;988;48.016;7.800;2023-04-24T09:43:32;15.90;;;15.17;;
1975;SDS011;988;48.016;7.800;2023-04-24T09:45:59;15.53;;;14.73;;
1975;SDS011;988;48.016;7.800;2023-04-24T09:48:32;15.63;;;14.73;;
1975;SDS011;988;48.016;7.800;2023-04-24T09:51:00;15.93;;;14.93;;
1975;SDS011;988;48.016;7.800;2023-04-24T09:53:28;15.50;;;14.60;;
1975;SDS011;988;48.016;7.800;2023-04-24T09:55:54;14.73;;;14.03;;
1975;SDS011;988;48.016;7.800;2023-04-24T09:58:25;15.00;;;14.30;;
1975;SDS011;988;48.016;7.800;2023-04-24T10:00:55;16.10;;;15.10;;
1975;SDS011;988;48.016;7.800;2023-04-24T10:03:23;15.43;;;14.63;;
1975;SDS011;988;48.016;7.800;2023-04-24T10:05:52;15.03;;;14.43;;
1975;SDS011;988;48.016;7.800;2023-04-24T10:08:18;14.77;;;14.07;;
1975;SDS011;988;48.016;7.800;2023-04-24T10:10:45;14.70;;;13.80;;
1975;SDS011;988;48.016;7.800;2023-04-24T10:13:12;14.40;;;13.70;;
1975;SDS011;988;48.016;7.800;2023-04-24T10:15:40;14.80;;;13.90;;
1975;SDS011;988;48.016;7.800;2023-04-24T10:18:06;14.83;;;13.93;;
1975;SDS011;988;48.016;7.800;2023-04-24T10:20:34;14.20;;;13.60;;
1975;SDS011;988;48.016;7.800;2023-04-24T10:23:01;14.57;;;13.87;;
1975;SDS011;988;48.016;7.800;2023-04-24T10:25:27;14.93;;;14.10;;
1975;SDS011;988;48.016;7.800;2023-04-24T10:27:55;14.30;;;13.70;;
1975;SDS011;988;48.016;7.800;2023-04-24T10:30:23;13.70;;;13.10;;
1975;SDS011;988;48.016;7.800;2023-04-24T10:32:49;15.00;;;14.20;;
1975;SDS011;988;48.016;7.800;2023-04-24T10:35:15;14.37;;;13.77;;
1975;SDS011;988;48.016;7.800;2023-04-24T10:40:16;14.43;;;13.73;;
1975;SDS011;988;48.016;7.800;2023-04-24T10:42:46;15.20;;;14.50;;
1975;SDS011;988;48.016;7.800;2023-04-24T10:45:20;13.90;;;13.30;;
1975;SDS011;988;48.016;7.800;2023-04-24T10:47:59;14.27;;;13.47;;
1975;SDS011;988;48.016;7.800;2023-04-24T10:50:27;14.97;;;14.17;;
1975;SDS011;988;48.016;7.800;2023-04-24T10:53:04;15.30;;;14.60;;
1975;SDS011;988;48.016;7.800;2023-04-24T11:00:57;14.97;;;14.20;;
1975;SDS011;988;48.016;7.800;2023-04-24T11:05:53;15.97;;;14.37;;
1975;SDS011;988;48.016;7.800;2023-04-24T11:20:44;15.23;;;14.27;;
1975;SDS011;988;48.016;7.800;2023-04-24T11:25:39;16.17;;;15.27;;
1975;SDS011;988;48.016;7.800;2023-04-24T11:28:06;16.10;;;15.30;;
1975;SDS011;988;48.016;7.800;2023-04-24T11:30:32;17.47;;;16.50;;
1975;SDS011;988;48.016;7.800;2023-04-24T11:33:02;17.70;;;16.70;;
1975;SDS011;988;48.016;7.800;2023-04-24T11:35:29;16.37;;;15.47;;
1975;SDS011;988;48.016;7.800;2023-04-24T11:37:59;15.93;;;14.70;;
1975;SDS011;988;48.016;7.800;2023-04-24T11:40:27;15.60;;;14.90;;
1975;SDS011;988;48.016;7.800;2023-04-24T11:42:53;15.83;;;15.00;;
1975;SDS011;988;48.016;7.800;2023-04-24T11:45:25;16.30;;;15.50;;
1975;SDS011;988;48.016;7.800;2023-04-24T11:47:55;15.93;;;15.20;;
1975;SDS011;988;48.016;7.800;2023-04-24T11:50:22;15.93;;;14.87;;
1975;SDS011;988;48.016;7.800;2023-04-24T11:52:51;17.20;;;16.40;;
1975;SDS011;988;48.016;7.800;2023-04-24T11:57:43;17.60;;;16.67;;
1975;SDS011;988;48.016;7.800;2023-04-24T12:00:19;17.10;;;16.30;;
1975;SDS011;988;48.016;7.800;2023-04-24T12:02:50;17.77;;;16.53;;
1975;SDS011;988;48.016;7.800;2023-04-24T12:05:20;17.53;;;16.70;;
1975;SDS011;988;48.016;7.800;2023-04-24T12:07:49;16.67;;;15.63;;
1975;SDS011;988;48.016;7.800;2023-04-24T12:10:19;16.43;;;15.53;;
1975;SDS011;988;48.016;7.800;2023-04-24T12:12:49;16.40;;;15.60;;
1975;SDS011;988;48.016;7.800;2023-04-24T12:15:16;17.40;;;16.60;;
1975;SDS011;988;48.016;7.800;2023-04-24T12:17:44;17.17;;;16.13;;
1975;SDS011;988;48.016;7.800;2023-04-24T12:20:10;15.83;;;15.10;;
1975;SDS011;988;48.016;7.800;2023-04-24T12:22:58;18.90;;;17.90;;
1975;SDS011;988;48.016;7.800;2023-04-24T12:25:26;15.90;;;15.20;;
1975;SDS011;988;48.016;7.800;2023-04-24T12:30:30;16.30;;;15.50;;
1975;SDS011;988;48.016;7.800;2023-04-24T12:32:57;15.83;;;15.07;;
1975;SDS011;988;48.016;7.800;2023-04-24T12:35:25;15.60;;;14.90;;
1975;SDS011;988;48.016;7.800;2023-04-24T12:37:53;16.50;;;15.40;;
1975;SDS011;988;48.016;7.800;2023-04-24T12:40:19;16.17;;;15.47;;
1975;SDS011;988;48.016;7.800;2023-04-24T12:42:49;16.83;;;16.03;;
1975;SDS011;988;48.016;7.800;2023-04-24T12:45:16;17.17;;;16.43;;
1975;SDS011;988;48.016;7.800;2023-04-24T12:47:43;18.20;;;17.00;;
1975;SDS011;988;48.016;7.800;2023-04-24T12:50:13;18.07;;;17.17;;
1975;SDS011;988;48.016;7.800;2023-04-24T12:52:40;19.33;;;18.03;;
1975;SDS011;988;48.016;7.800;2023-04-24T12:55:07;17.93;;;17.13;;
1975;SDS011;988;48.016;7.800;2023-04-24T12:57:34;18.80;;;17.60;;
1975;SDS011;988;48.016;7.800;2023-04-24T13:00:01;17.77;;;16.87;;
1975;SDS011;988;48.016;7.800;2023-04-24T13:02:29;18.83;;;17.60;;
1975;SDS011;988;48.016;7.800;2023-04-24T13:04:58;19.57;;;18.67;;
1975;SDS011;988;48.016;7.800;2023-04-24T13:07:24;18.77;;;17.97;;
1975;SDS011;988;48.016;7.800;2023-04-24T13:09:50;19.67;;;18.57;;
1975;SDS011;988;48.016;7.800;2023-04-24T13:12:16;17.60;;;16.80;;
1975;SDS011;988;48.016;7.800;2023-04-24T13:14:42;16.90;;;16.10;;
1975;SDS011;988;48.016;7.800;2023-04-24T13:17:08;17.63;;;16.73;;
1975;SDS011;988;48.016;7.800;2023-04-24T13:19:37;17.10;;;16.30;;
1975;SDS011;988;48.016;7.800;2023-04-24T13:22:04;17.93;;;17.10;;
1975;SDS011;988;48.016;7.800;2023-04-24T13:24:30;17.30;;;16.50;;
1975;SDS011;988;48.016;7.800;2023-04-24T13:26:56;17.47;;;16.53;;
1975;SDS011;988;48.016;7.800;2023-04-24T13:29:22;17.80;;;16.93;;
1975;SDS011;988;48.016;7.800;2023-04-24T13:31:51;19.40;;;18.40;;
1975;SDS011;988;48.016;7.800;2023-04-24T13:34:19;19.77;;;18.67;;
1975;SDS011;988;48.016;7.800;2023-04-24T13:36:45;18.50;;;17.60;;
1975;SDS011;988;48.016;7.800;2023-04-24T13:39:11;17.13;;;16.33;;
1975;SDS011;988;48.016;7.800;2023-04-24T13:41:37;16.97;;;16.07;;
1975;SDS011;988;48.016;7.800;2023-04-24T13:44:03;17.60;;;16.57;;
1975;SDS011;988;48.016;7.800;2023-04-24T13:46:31;17.27;;;16.40;;
1975;SDS011;988;48.016;7.800;2023-04-24T13:48:57;18.10;;;17.10;;
1975;SDS011;988;48.016;7.800;2023-04-24T13:51:23;18.57;;;17.30;;
1975;SDS011;988;48.016;7.800;2023-04-24T13:53:52;19.10;;;17.67;;
1975;SDS011;988;48.016;7.800;2023-04-24T13:56:18;18.10;;;17.20;;
1975;SDS011;988;48.016;7.800;2023-04-24T13:58:44;17.40;;;16.47;;
1975;SDS011;988;48.016;7.800;2023-04-24T14:01:10;17.60;;;16.60;;
1975;SDS011;988;48.016;7.800;2023-04-24T14:03:36;16.57;;;15.80;;
1975;SDS011;988;48.016;7.800;2023-04-24T14:06:02;17.30;;;16.50;;
1975;SDS011;988;48.016;7.800;2023-04-24T14:08:28;18.23;;;17.33;;
1975;SDS011;988;48.016;7.800;2023-04-24T14:10:54;17.87;;;16.53;;
1975;SDS011;988;48.016;7.800;2023-04-24T14:13:19;17.80;;;16.90;;
1975;SDS011;988;48.016;7.800;2023-04-24T14:15:45;16.90;;;15.97;;
1975;SDS011;988;48.016;7.800;2023-04-24T14:18:11;17.60;;;16.30;;
1975;SDS011;988;48.016;7.800;2023-04-24T14:20:36;16.77;;;15.80;;
1975;SDS011;988;48.016;7.800;2023-04-24T14:23:03;16.77;;;15.87;;
1975;SDS011;988;48.016;7.800;2023-04-24T14:25:31;17.40;;;16.50;;
1975;SDS011;988;48.016;7.800;2023-04-24T14:27:56;19.33;;;18.03;;
1975;SDS011;988;48.016;7.800;2023-04-24T14:30:22;18.50;;;17.60;;
1975;SDS011;988;48.016;7.800;2023-04-24T14:32:48;19.90;;;18.83;;
1975;SDS011;988;48.016;7.800;2023-04-24T14:35:13;17.43;;;16.33;;
1975;SDS011;988;48.016;7.800;2023-04-24T14:37:39;16.97;;;16.17;;
1975;SDS011;988;48.016;7.800;2023-04-24T14:40:06;16.77;;;15.90;;
1975;SDS011;988;48.016;7.800;2023-04-24T14:42:33;16.00;;;15.30;;
1975;SDS011;988;48.016;7.800;2023-04-24T14:44:58;15.60;;;14.70;;
1975;SDS011;988;48.016;7.800;2023-04-24T14:47:24;16.70;;;15.80;;
1975;SDS011;988;48.016;7.800;2023-04-24T14:49:50;17.17;;;16.37;;
1975;SDS011;988;48.016;7.800;2023-04-24T14:52:16;15.53;;;14.83;;
1975;SDS011;988;48.016;7.800;2023-04-24T14:54:42;15.90;;;15.20;;
1975;SDS011;988;48.016;7.800;2023-04-24T14:57:08;15.33;;;14.63;;
1975;SDS011;988;48.016;7.800;2023-04-24T14:59:33;17.20;;;16.40;;
1975;SDS011;988;48.016;7.800;2023-04-24T15:01:59;17.40;;;16.30;;
1975;SDS011;988;48.016;7.800;2023-04-24T15:04:25;17.37;;;16.40;;
1975;SDS011;988;48.016;7.800;2023-04-24T15:06:51;17.30;;;16.50;;
1975;SDS011;988;48.016;7.800;2023-04-24T15:09:18;16.83;;;15.93;;
1975;SDS011;988;48.016;7.800;2023-04-24T15:11:44;16.63;;;15.73;;
1975;SDS011;988;48.016;7.800;2023-04-24T15:14:10;15.83;;;14.93;;
1975;SDS011;988;48.016;7.800;2023-04-24T15:16:36;16.90;;;16.10;;
1975;SDS011;988;48.016;7.800;2023-04-24T15:19:01;17.13;;;15.93;;
1975;SDS011;988;48.016;7.800;2023-04-24T15:21:27;17.50;;;16.50;;
1975;SDS011;988;48.016;7.800;2023-04-24T15:23:52;17.60;;;16.70;;
1975;SDS011;988;48.016;7.800;2023-04-24T15:26:18;18.80;;;17.80;;
1975;SDS011;988;48.016;7.800;2023-04-24T15:28:44;17.60;;;16.70;;
1975;SDS011;988;48.016;7.800;2023-04-24T15:31:11;18.37;;;17.57;;
1975;SDS011;988;48.016;7.800;2023-04-24T15:33:37;19.50;;;18.50;;
1975;SDS011;988;48.016;7.800;2023-04-24T15:36:03;16.93;;;16.03;;
1975;SDS011;988;48.016;7.800;2023-04-24T15:38:29;17.77;;;16.87;;
1975;SDS011;988;48.016;7.800;2023-04-24T15:40:55;17.10;;;16.10;;